Time;durP1;ratioP1;P1;durP2;ratioP2;P2;SDS_P1;SDS_P2;PMS_P1;PMS_P2;Temp;Humidity;BMP_temperature;BMP_pressure;BME280_temperature;BME280_humidity;BME280_pressure;Samples;Min_cycle;Max_cycle;Signal;HPM_P1;HPM_P2
2023/08/27 00:01:20;;;;;;;15.32;11.93;;;;;;;;;;4993951;28;20056;-56
2023/08/27 00:03:46;;;;;;;18.08;11.52;;;;;;;;;;4994195;28;20058;-52
2023/08/27 00:06:12;;;;;;;16.52;10.32;;;;;;;;;;4976315;28;20109;-53
2023/08/27 00:08:38;;;;;;;12.48;10.38;;;;;;;;;;4993647;28;20027;-54
2023/08/27 00:11:05;;;;;;;14.60;10.52;;;;;;;;;;4994012;28;20377;-53
2023/08/27 00:13:31;;;;;;;14.60;10.30;;;;;;;;;;4994341;28;20041;-53
2023/08/27 00:15:58;;;;;;;14.77;10.73;;;;;;;;;;4993797;28;20474;-58
2023/08/27 00:18:24;;;;;;;13.75;11.10;;;;;;;;;;4993994;28;20177;-54
2023/08/27 00:20:50;;;;;;;12.73;10.73;;;;;;;;;;4993989;28;20065;-53
2023/08/27 00:23:16;;;;;;;15.02;11.75;;;;;;;;;;4993756;28;20027;-53
2023/08/27 00:25:45;;;;;;;15.43;11.35;;;;;;;;;;4993741;28;20030;-52
2023/08/27 00:28:15;;;;;;;15.38;11.20;;;;;;;;;;4993656;28;20038;-57
2023/08/27 00:30:41;;;;;;;14.63;11.13;;;;;;;;;;4993898;28;20031;-55
2023/08/27 00:33:07;;;;;;;14.00;11.98;;;;;;;;;;4993574;28;20089;-56
2023/08/27 00:35:34;;;;;;;15.00;12.15;;;;;;;;;;4993952;28;20037;-55
2023/08/27 00:37:59;;;;;;;16.83;11.85;;;24.00;99.90;;;;;;4993488;28;20034;-54
2023/08/27 00:40:29;;;;;;;15.15;11.63;;;24.00;99.90;;;;;;4993470;28;20055;-55
2023/08/27 00:42:55;;;;;;;13.90;11.77;;;24.00;99.90;;;;;;4993456;28;20054;-54
2023/08/27 00:45:21;;;;;;;17.77;12.10;;;23.70;99.90;;;;;;4993888;28;20030;-54
2023/08/27 00:47:47;;;;;;;16.52;11.60;;;23.60;99.90;;;;;;4993533;28;20545;-55
2023/08/27 00:50:14;;;;;;;15.85;11.05;;;23.70;99.90;;;;;;4975590;28;20070;-51
2023/08/27 00:52:41;;;;;;;14.82;11.13;;;23.90;99.90;;;;;;4993678;28;20359;-51
2023/08/27 00:55:08;;;;;;;16.40;11.32;;;24.10;99.90;;;;;;4994207;28;20034;-53
2023/08/27 00:57:36;;;;;;;15.88;11.98;;;24.20;99.90;;;;;;4959279;28;20073;-54
2023/08/27 01:00:03;;;;;;;15.25;11.40;;;24.40;99.90;;;;;;4993406;28;20033;-57
2023/08/27 01:02:28;;;;;;;12.80;10.73;;;24.30;99.90;;;;;;4991559;28;20065;-53
2023/08/27 01:04:54;;;;;;;19.10;12.75;;;24.00;99.90;;;;;;4993508;28;20469;-54
2023/08/27 01:07:31;;;;;;;19.35;11.23;;;23.80;99.90;;;;;;4993455;28;20054;-55
2023/08/27 01:10:04;;;;;;;13.68;11.02;;;;;;;;;;4993058;28;20505;-53
2023/08/27 01:12:39;;;;;;;13.90;10.63;;;23.50;99.90;;;;;;4993957;28;20029;-52
2023/08/27 01:15:07;;;;;;;16.90;10.75;;;;;;;;;;4993544;28;20038;-54
2023/08/27 01:17:34;;;;;;;12.23;10.18;;;;;;;;;;4993334;28;20088;-52
2023/08/27 01:20:00;;;;;;;20.55;11.07;;;;;;;;;;4993510;28;20026;-53
2023/08/27 01:22:26;;;;;;;13.90;9.95;;;;;;;;;;4996239;28;20108;-52
2023/08/27 01:24:53;;;;;;;13.23;10.90;;;;;;;;;;4994976;28;20126;-52
2023/08/27 01:27:25;;;;;;;15.77;11.10;;;;;;;;;;4996802;28;20026;-53
2023/08/27 01:29:57;;;;;;;15.02;10.38;;;;;;;;;;4996672;28;20044;-53
2023/08/27 01:32:29;;;;;;;17.00;11.23;;;;;;;;;;4996825;28;20037;-56
2023/08/27 01:34:56;;;;;;;18.52;11.63;;;23.70;99.90;;;;;;4996756;28;20461;-56
2023/08/27 01:37:43;;;;;;;14.43;11.45;;;23.80;99.90;;;;;;4955731;29;20057;-52
2023/08/27 01:40:09;;;;;;;15.80;11.07;;;;;;;;;;4955563;29;20069;-51
2023/08/27 01:42:38;;;;;;;15.07;10.75;;;;;;;;;;4955630;29;20106;-54
2023/08/27 01:45:06;;;;;;;17.33;9.88;;;;;;;;;;4955364;29;20507;-56
2023/08/27 01:47:32;;;;;;;12.75;10.40;;;;;;;;;;4955622;29;20106;-53
2023/08/27 01:49:58;;;;;;;17.27;11.13;;;;;;;;;;4955730;29;20039;-55
2023/08/27 01:52:24;;;;;;;14.70;9.85;;;24.20;99.90;;;;;;4955122;29;20439;-54
2023/08/27 01:54:50;;;;;;;15.02;9.90;;;24.00;99.90;;;;;;4955466;29;20040;-52
2023/08/27 01:57:15;;;;;;;12.38;9.98;;;23.80;99.90;;;;;;4955294;29;20457;-54
2023/08/27 01:59:41;;;;;;;16.88;11.00;;;23.90;99.90;;;;;;4955343;29;20114;-55
2023/08/27 02:02:07;;;;;;;16.08;10.05;;;23.90;99.90;;;;;;4955098;29;20047;-54
2023/08/27 02:04:33;;;;;;;15.35;10.20;;;23.70;99.90;;;;;;4955424;29;20043;-55
2023/08/27 02:06:58;;;;;;;12.10;10.45;;;23.70;99.90;;;;;;4955302;29;20035;-54
2023/08/27 02:09:24;;;;;;;19.60;11.63;;;23.70;99.90;;;;;;4955214;29;20134;-54
2023/08/27 02:11:50;;;;;;;14.90;12.05;;;23.50;99.90;;;;;;4955086;29;20035;-56
2023/08/27 02:14:16;;;;;;;13.73;10.82;;;23.50;99.90;;;;;;4958313;28;20043;-56
2023/08/27 02:16:42;;;;;;;15.85;11.05;;;23.80;99.90;;;;;;4976490;28;20109;-54
2023/08/27 02:19:07;;;;;;;18.90;11.80;;;23.80;99.90;;;;;;4976180;28;20506;-53
2023/08/27 02:21:33;;;;;;;15.20;11.20;;;23.70;99.90;;;;;;5006963;28;20042;-54
2023/08/27 02:24:00;;;;;;;18.30;12.00;;;23.80;99.90;;;;;;4975703;28;20027;-56
2023/08/27 02:26:26;;;;;;;15.90;11.77;;;24.00;99.90;;;;;;4975984;28;20035;-56
2023/08/27 02:28:52;;;;;;;18.05;11.20;;;23.90;99.90;;;;;;4976152;28;20050;-54
2023/08/27 02:31:17;;;;;;;18.58;11.38;;;23.90;99.90;;;;;;4975711;28;20039;-55
2023/08/27 02:33:46;;;;;;;13.85;11.80;;;23.90;99.90;;;;;;4976022;28;20027;-52
2023/08/27 02:36:12;;;;;;;19.92;12.73;;;24.00;99.90;;;;;;4976174;28;20029;-55
2023/08/27 02:38:38;;;;;;;21.00;12.95;;;24.00;99.90;;;;;;4976282;28;20122;-54
2023/08/27 02:41:03;;;;;;;19.17;12.63;;;23.90;99.90;;;;;;4975907;28;20094;-54
2023/08/27 02:43:29;;;;;;;17.90;11.82;;;23.80;99.90;;;;;;4990753;28;20399;-53
2023/08/27 02:45:55;;;;;;;16.65;11.95;;;23.90;99.90;;;;;;4993205;28;20085;-56
2023/08/27 02:48:21;;;;;;;15.63;12.02;;;23.90;99.90;;;;;;4995499;28;20045;-56
2023/08/27 02:50:47;;;;;;;16.48;13.13;;;23.90;99.90;;;;;;4977280;28;20038;-55
2023/08/27 02:53:13;;;;;;;14.30;11.90;;;23.90;99.90;;;;;;4994943;28;20434;-56
2023/08/27 02:55:38;;;;;;;13.00;11.55;;;23.90;99.90;;;;;;4995129;28;20030;-55
2023/08/27 02:58:04;;;;;;;14.30;11.98;;;23.90;99.90;;;;;;4994989;28;20034;-54
2023/08/27 03:00:30;;;;;;;15.18;13.02;;;24.00;99.90;;;;;;4995466;28;20026;-55
2023/08/27 03:02:56;;;;;;;15.57;12.88;;;24.00;99.90;;;;;;4995081;28;20137;-55
2023/08/27 03:05:22;;;;;;;17.73;13.27;;;23.90;99.90;;;;;;4994773;28;20073;-52
2023/08/27 03:07:48;;;;;;;17.20;14.50;;;23.70;99.90;;;;;;4994719;28;20060;-53
2023/08/27 03:10:14;;;;;;;17.40;13.65;;;23.50;99.90;;;;;;4976759;28;20034;-51
2023/08/27 03:12:40;;;;;;;16.75;12.77;;;23.40;99.90;;;;;;4976816;28;20080;-55
2023/08/27 03:15:06;;;;;;;16.50;13.05;;;23.50;99.90;;;;;;4994609;28;20416;-55
2023/08/27 03:17:32;;;;;;;20.08;12.60;;;23.60;99.90;;;;;;4994708;28;20046;-53
2023/08/27 03:19:58;;;;;;;16.08;13.52;;;23.70;99.90;;;;;;4994574;28;20022;-54
2023/08/27 03:22:24;;;;;;;18.27;13.45;;;23.80;99.90;;;;;;4960417;28;20041;-55
2023/08/27 03:24:50;;;;;;;17.98;13.18;;;23.80;99.90;;;;;;4994675;28;20030;-52
2023/08/27 03:27:15;;;;;;;18.60;13.05;;;23.90;99.90;;;;;;4994370;28;20348;-55
2023/08/27 03:29:41;;;;;;;25.55;13.70;;;24.00;99.90;;;;;;4994465;28;20106;-54
2023/08/27 03:32:07;;;;;;;16.63;13.75;;;24.00;99.90;;;;;;4976753;28;20372;-56
2023/08/27 03:34:33;;;;;;;14.63;12.13;;;24.00;99.90;;;;;;4994456;28;20041;-55
2023/08/27 03:36:58;;;;;;;27.90;14.77;;;24.00;99.90;;;;;;4994248;28;20489;-55
2023/08/27 03:39:24;;;;;;;15.68;13.00;;;24.10;99.90;;;;;;4994222;28;20114;-52
2023/08/27 03:41:50;;;;;;;14.40;12.90;;;24.00;99.90;;;;;;4994126;28;20478;-53
2023/08/27 03:44:16;;;;;;;13.93;12.52;;;24.00;99.90;;;;;;4993780;28;20110;-54
2023/08/27 03:46:41;;;;;;;14.45;12.63;;;24.00;99.90;;;;;;4994118;28;20031;-55
2023/08/27 03:49:07;;;;;;;21.35;12.90;;;23.90;99.90;;;;;;4976343;28;20038;-54
2023/08/27 03:51:33;;;;;;;17.80;13.23;;;23.90;99.90;;;;;;4994316;28;20375;-53
2023/08/27 03:54:00;;;;;;;18.65;13.05;;;23.80;99.90;;;;;;4994493;28;20141;-53
2023/08/27 03:56:26;;;;;;;18.33;13.40;;;23.80;99.90;;;;;;4993941;28;20033;-55
2023/08/27 03:58:52;;;;;;;14.75;13.02;;;23.90;99.90;;;;;;4994016;28;20053;-54
2023/08/27 04:01:18;;;;;;;18.95;12.38;;;23.90;99.90;;;;;;4959634;28;20490;-53
2023/08/27 04:03:44;;;;;;;16.52;13.07;;;23.90;99.90;;;;;;4994076;28;20343;-55
2023/08/27 04:06:10;;;;;;;16.65;13.00;;;23.80;99.90;;;;;;4994345;28;20042;-56
2023/08/27 04:08:37;;;;;;;18.30;14.02;;;23.70;99.90;;;;;;4994152;28;20429;-54
2023/08/27 04:11:04;;;;;;;17.42;13.07;;;23.70;99.90;;;;;;4993899;28;20022;-54
2023/08/27 04:13:30;;;;;;;16.38;13.32;;;23.80;99.90;;;;;;4993781;28;20035;-57
2023/08/27 04:16:10;;;;;;;21.00;14.05;;;23.80;99.90;;;;;;4994461;28;20142;-54
2023/08/27 04:18:36;;;;;;;19.20;14.68;;;23.80;99.90;;;;;;4993273;28;20498;-54
2023/08/27 04:21:03;;;;;;;17.98;13.95;;;24.00;99.90;;;;;;4994338;28;20054;-57
2023/08/27 04:23:29;;;;;;;23.52;13.65;;;24.00;99.90;;;;;;4989154;28;20034;-55
2023/08/27 04:25:55;;;;;;;19.73;13.27;;;24.10;99.90;;;;;;4984139;28;20085;-54
2023/08/27 04:28:21;;;;;;;17.60;14.07;;;24.10;99.90;;;;;;4943067;28;20049;-56
2023/08/27 04:30:48;;;;;;;19.88;13.77;;;23.90;99.90;;;;;;4983443;28;20030;-55
2023/08/27 04:33:14;;;;;;;16.40;14.70;;;24.00;99.90;;;;;;4985296;28;20126;-54
2023/08/27 04:35:40;;;;;;;19.63;14.77;;;24.00;99.90;;;;;;4985703;28;20033;-57
2023/08/27 04:38:07;;;;;;;21.58;14.48;;;24.10;99.90;;;;;;4984735;28;20114;-56
2023/08/27 04:40:33;;;;;;;16.13;13.13;;;24.10;99.90;;;;;;4991073;28;20037;-56
2023/08/27 04:42:59;;;;;;;30.52;20.40;;;24.00;99.90;;;;;;4984583;28;20507;-54
2023/08/27 04:45:25;;;;;;;51.17;31.45;;;23.90;99.90;;;;;;4982239;28;20034;-52
2023/08/27 04:47:51;;;;;;;17.27;14.68;;;24.10;99.90;;;;;;4959089;28;20479;-54
2023/08/27 04:50:17;;;;;;;20.70;14.48;;;24.20;99.90;;;;;;4941095;29;20554;-56
2023/08/27 04:52:43;;;;;;;17.30;13.25;;;24.40;99.90;;;;;;4935976;29;20487;-53
2023/08/27 04:55:09;;;;;;;23.00;14.48;;;24.60;99.90;;;;;;4941116;29;20130;-54
2023/08/27 04:57:36;;;;;;;26.40;16.38;;;24.50;99.90;;;;;;4936798;29;20096;-53
2023/08/27 05:00:25;;;;;;;17.13;13.90;;;24.30;99.90;;;;;;4937629;29;20570;-55
2023/08/27 05:02:51;;;;;;;16.20;14.35;;;;;;;;;;4956564;29;20043;-53
2023/08/27 05:05:17;;;;;;;20.33;14.30;;;;;;;;;;4956464;29;20552;-53
2023/08/27 05:07:44;;;;;;;18.17;14.18;;;;;;;;;;4956083;28;20035;-55
2023/08/27 05:10:10;;;;;;;30.50;15.13;;;24.70;99.90;;;;;;4956285;29;20110;-55
2023/08/27 05:12:35;;;;;;;18.70;14.15;;;24.00;99.90;;;;;;4955986;29;20043;-51
2023/08/27 05:15:02;;;;;;;32.97;23.88;;;;;;;;;;4940359;29;20383;-57
2023/08/27 05:17:28;;;;;;;19.35;15.13;;;;;;;;;;4955839;29;20106;-55
2023/08/27 05:19:55;;;;;;;22.92;15.90;;;;;;;;;;4942683;28;20071;-53
2023/08/27 05:22:21;;;;;;;22.02;14.93;;;;;;;;;;4975336;28;20043;-56
2023/08/27 05:24:47;;;;;;;17.52;15.20;;;;;;;;;;4975110;28;20118;-54
2023/08/27 05:27:13;;;;;;;17.60;15.48;;;;;;;;;;4959163;28;20065;-55
2023/08/27 05:29:39;;;;;;;18.58;15.20;;;;;;;;;;4975029;28;20023;-52
2023/08/27 05:32:05;;;;;;;20.55;15.15;;;;;;;;;;4975154;28;20065;-51
2023/08/27 05:34:32;;;;;;;20.92;15.88;;;;;;;;;;4935354;28;20121;-54
2023/08/27 05:36:58;;;;;;;28.73;16.42;;;;;;;;;;4976901;28;20386;-55
2023/08/27 05:39:24;;;;;;;21.15;15.98;;;24.50;99.90;;;;;;4977171;28;20078;-55
2023/08/27 05:41:50;;;;;;;20.42;14.90;;;24.50;99.90;;;;;;4976796;28;20074;-53
2023/08/27 05:44:16;;;;;;;20.70;15.93;;;24.60;99.90;;;;;;4977137;28;20085;-55
2023/08/27 05:46:42;;;;;;;22.52;15.25;;;;;;;;;;4976960;28;20022;-56
2023/08/27 05:49:08;;;;;;;19.05;14.27;;;;;;;;;;4977073;28;20019;-53
2023/08/27 05:51:34;;;;;;;23.67;14.63;;;;;;;;;;4977108;28;20019;-54
2023/08/27 05:54:00;;;;;;;21.42;15.18;;;;;;;;;;4976810;28;20446;-51
2023/08/27 05:56:27;;;;;;;26.45;16.65;;;26.00;99.90;;;;;;4976730;28;20031;-54
2023/08/27 05:58:53;;;;;;;21.70;15.50;;;;;;;;;;4958872;28;20133;-53
2023/08/27 06:01:19;;;;;;;20.45;15.40;;;;;;;;;;4976580;28;20058;-55
2023/08/27 06:03:45;;;;;;;20.20;15.73;;;26.50;99.90;;;;;;4958717;28;20157;-55
2023/08/27 06:06:11;;;;;;;21.70;15.68;;;26.50;99.90;;;;;;4958726;28;20122;-53
2023/08/27 06:08:37;;;;;;;17.95;15.50;;;26.30;99.90;;;;;;4976160;28;20034;-54
2023/08/27 06:11:04;;;;;;;21.52;15.68;;;26.50;99.90;;;;;;4958750;28;20045;-52
2023/08/27 06:13:30;;;;;;;15.13;13.02;;;26.40;99.90;;;;;;4958777;28;20042;-56
2023/08/27 06:15:56;;;;;;;19.10;13.70;;;;;;;;;;4976256;28;20228;-52
2023/08/27 06:18:23;;;;;;;19.17;12.90;;;;;;;;;;4976198;28;20038;-57
2023/08/27 06:20:49;;;;;;;17.58;13.07;;;26.90;99.90;;;;;;4976506;28;20030;-53
2023/08/27 06:23:15;;;;;;;20.98;12.77;;;27.00;99.90;;;;;;4976699;28;20034;-53
2023/08/27 06:25:41;;;;;;;18.05;12.18;;;27.30;99.90;;;;;;4976215;28;20559;-52
2023/08/27 06:28:07;;;;;;;21.45;13.68;;;;;;;;;;4976141;28;20106;-54
2023/08/27 06:30:33;;;;;;;14.50;11.82;;;27.80;99.90;;;;;;4978505;28;20394;-53
2023/08/27 06:33:00;;;;;;;19.10;13.15;;;27.80;99.90;;;;;;4977287;28;20047;-53
2023/08/27 06:35:26;;;;;;;14.13;11.43;;;27.90;99.90;;;;;;4976100;28;20110;-53
2023/08/27 06:37:51;;;;;;;16.35;12.05;;;27.90;99.90;;;;;;4976184;28;20137;-55
2023/08/27 06:40:17;;;;;;;17.80;11.27;;;28.10;99.90;;;;;;4975979;28;20078;-55
2023/08/27 06:42:43;;;;;;;13.30;10.52;;;;;;;;;;4975978;28;20078;-52
2023/08/27 06:45:10;;;;;;;17.35;11.40;;;28.60;99.90;;;;;;4975851;28;20122;-52
2023/08/27 06:47:36;;;;;;;18.40;11.13;;;28.50;99.90;;;;;;4957842;28;20434;-52
2023/08/27 06:50:04;;;;;;;17.27;11.30;;;;;;;;;;4975707;28;20062;-52
2023/08/27 06:52:33;;;;;;;16.55;11.70;;;28.70;99.90;;;;;;4975884;28;20121;-53
2023/08/27 06:55:00;;;;;;;15.80;11.07;;;;;;;;;;4976235;28;20114;-54
2023/08/27 06:57:26;;;;;;;14.75;10.02;;;;;;;;;;4975497;28;20046;-56
2023/08/27 06:59:52;;;;;;;13.73;11.10;;;29.40;99.90;;;;;;4975494;28;20031;-53
2023/08/27 07:02:18;;;;;;;16.85;10.93;;;;;;;;;;4975502;28;20035;-55
2023/08/27 07:04:44;;;;;;;16.38;11.60;;;;;;;;;;4975629;28;20027;-55
2023/08/27 07:07:10;;;;;;;15.50;11.60;;;;;;;;;;4975496;28;20035;-55
2023/08/27 07:09:37;;;;;;;12.75;11.25;;;;;;;;;;4975449;28;20475;-57
2023/08/27 07:12:03;;;;;;;15.63;10.23;;;;;;;;;;4975260;28;20035;-55
2023/08/27 07:14:29;;;;;;;14.43;10.73;;;;;;;;;;4975860;28;20027;-56
2023/08/27 07:16:55;;;;;;;18.63;11.88;;;;;;;;;;4975427;28;20471;-56
2023/08/27 07:19:21;;;;;;;20.35;11.68;;;;;;;;;;4974356;28;20063;-56
2023/08/27 07:21:47;;;;;;;16.33;10.15;;;;;;;;;;4975043;28;20031;-55
2023/08/27 07:24:14;;;;;;;20.60;11.43;;;;;;;;;;4957479;28;20038;-53
2023/08/27 07:26:40;;;;;;;18.63;10.98;;;31.40;99.90;;;;;;4975074;28;20077;-57
2023/08/27 07:29:06;;;;;;;18.30;11.15;;;;;;;;;;4975215;28;20031;-52
2023/08/27 07:31:32;;;;;;;13.77;10.45;;;31.10;99.90;;;;;;4974901;28;20062;-55
2023/08/27 07:33:57;;;;;;;19.77;11.43;;;31.10;99.90;;;;;;4972984;28;20081;-55
2023/08/27 07:36:23;;;;;;;15.85;11.18;;;31.20;99.90;;;;;;4975232;28;20039;-56
2023/08/27 07:38:49;;;;;;;18.45;11.07;;;31.20;99.90;;;;;;4974731;28;20046;-58
2023/08/27 07:41:15;;;;;;;17.45;11.20;;;31.40;99.90;;;;;;4940879;28;20121;-57
2023/08/27 07:43:41;;;;;;;19.25;10.48;;;31.70;99.90;;;;;;4956788;28;20054;-54
2023/08/27 07:46:07;;;;;;;17.15;11.00;;;31.80;99.90;;;;;;4974818;28;20045;-54
2023/08/27 07:48:33;;;;;;;18.83;11.18;;;;;;;;;;4975115;28;20035;-57
2023/08/27 07:50:59;;;;;;;17.23;10.95;;;32.30;99.90;;;;;;4940763;28;20034;-55
2023/08/27 07:53:24;;;;;;;17.60;11.43;;;32.40;99.90;;;;;;4974696;28;20525;-56
2023/08/27 07:55:50;;;;;;;17.27;10.63;;;32.20;99.90;;;;;;4974659;28;20034;-55
2023/08/27 07:58:16;;;;;;;19.02;11.55;;;32.40;99.90;;;;;;4925094;28;20046;-55
2023/08/27 08:00:42;;;;;;;18.77;10.95;;;32.60;99.90;;;;;;4974709;28;20034;-52
2023/08/27 08:03:08;;;;;;;19.02;11.07;;;32.50;99.90;;;;;;4974799;28;20035;-55
2023/08/27 08:05:34;;;;;;;18.70;11.25;;;32.50;99.90;;;;;;4974967;28;20059;-55
2023/08/27 08:08:00;;;;;;;15.90;10.88;;;32.90;99.90;;;;;;4974767;28;20027;-56
2023/08/27 08:10:25;;;;;;;13.73;10.98;;;33.00;99.90;;;;;;4974851;28;20026;-54
2023/08/27 08:12:52;;;;;;;22.55;11.15;;;;;;;;;;4974445;28;20038;-54
2023/08/27 08:15:19;;;;;;;17.08;10.80;;;33.20;99.90;;;;;;4974805;28;20050;-55
2023/08/27 08:17:45;;;;;;;18.80;10.52;;;33.50;99.90;;;;;;4956590;28;20041;-56
2023/08/27 08:20:11;;;;;;;16.52;10.95;;;;;;;;;;4974601;28;20035;-55
2023/08/27 08:22:38;;;;;;;14.05;10.13;;;33.80;99.90;;;;;;4974396;28;20475;-53
2023/08/27 08:25:05;;;;;;;15.18;12.65;;;;;;;;;;4973886;28;20121;-53
2023/08/27 08:27:31;;;;;;;18.50;11.90;;;;;;;;;;4940663;28;20438;-52
2023/08/27 08:29:56;;;;;;;15.05;10.95;;;34.30;99.90;;;;;;4975053;28;20438;-55
2023/08/27 08:32:22;;;;;;;22.90;13.77;;;34.60;99.90;;;;;;4960464;28;20118;-57
2023/08/27 08:34:48;;;;;;;19.65;11.27;;;;;;;;;;4960412;28;20039;-55
2023/08/27 08:37:14;;;;;;;22.52;11.32;;;;;;;;;;4977951;28;20031;-56
2023/08/27 08:39:40;;;;;;;13.60;10.32;;;;;;;;;;4960210;28;20043;-56
2023/08/27 08:42:06;;;;;;;17.00;11.07;;;;;;;;;;4978015;28;20054;-52
2023/08/27 08:44:39;;;;;;;14.30;10.38;;;35.30;99.90;;;;;;4978111;28;20030;-56
2023/08/27 08:47:09;;;;;;;49.65;28.92;;;35.40;99.90;;;;;;4977805;28;20422;-55
2023/08/27 08:49:42;;;;;;;236.27;213.35;;;35.40;99.70;;;;;;4978068;28;20034;-53
2023/08/27 08:52:11;;;;;;;35.45;27.05;;;35.50;99.90;;;;;;4943926;28;20414;-56
2023/08/27 08:54:38;;;;;;;17.10;10.73;;;35.60;99.80;;;;;;4959940;28;20097;-55
2023/08/27 08:57:06;;;;;;;19.02;10.15;;;35.60;99.70;;;;;;4977709;28;20487;-55
2023/08/27 08:59:32;;;;;;;17.48;9.70;;;;;;;;;;4978060;28;20122;-56
2023/08/27 09:01:59;;;;;;;22.23;15.55;;;;;;;;;;4978091;28;20026;-57
2023/08/27 09:04:26;;;;;;;57.95;42.55;;;36.20;99.90;;;;;;4977643;28;20170;-55
2023/08/27 09:06:53;;;;;;;17.90;10.40;;;36.10;99.90;;;;;;4977783;28;20423;-53
2023/08/27 09:09:22;;;;;;;16.98;10.10;;;36.30;99.90;;;;;;4977770;28;20380;-56
2023/08/27 09:11:49;;;;;;;16.52;10.25;;;36.60;99.00;;;;;;4977750;28;20430;-57
2023/08/27 09:14:16;;;;;;;17.55;10.07;;;36.70;98.70;;;;;;4977495;28;20398;-54
2023/08/27 09:16:42;;;;;;;40.20;28.67;;;36.50;98.40;;;;;;4977507;28;20111;-53
2023/08/27 09:19:08;;;;;;;19.45;10.60;;;37.00;98.40;;;;;;4977189;28;20120;-56
2023/08/27 09:21:34;;;;;;;17.45;10.98;;;37.00;98.60;;;;;;4986650;28;20108;-56
2023/08/27 09:24:00;;;;;;;26.20;10.68;;;37.30;98.50;;;;;;4997018;28;20061;-55
2023/08/27 09:26:27;;;;;;;20.77;12.70;;;;;;;;;;4996896;28;20029;-55
2023/08/27 09:28:54;;;;;;;18.75;10.02;;;37.90;98.10;;;;;;4996734;28;20391;-55
2023/08/27 09:31:43;;;;;;;23.50;11.15;;;37.50;97.70;;;;;;4996642;28;20034;-53
2023/08/27 09:34:11;;;;;;;17.10;9.10;;;;;;;;;;4996465;28;20390;-52
2023/08/27 09:36:37;;;;;;;16.17;9.75;;;37.50;97.00;;;;;;4996499;28;20030;-52
2023/08/27 09:39:11;;;;;;;202.48;186.05;;;37.70;97.20;;;;;;4978316;28;20125;-54
2023/08/27 09:41:47;;;;;;;14.88;9.82;;;37.50;96.90;;;;;;4995924;28;20026;-55
2023/08/27 09:44:14;;;;;;;18.65;10.23;;;37.70;96.40;;;;;;4996539;28;20109;-54
2023/08/27 09:46:42;;;;;;;13.95;8.82;;;37.80;96.30;;;;;;4962233;28;20043;-56
2023/08/27 09:49:08;;;;;;;18.92;9.73;;;38.00;96.00;;;;;;4959820;28;20045;-52
2023/08/27 09:51:36;;;;;;;15.80;9.05;;;38.30;96.50;;;;;;4996403;28;20030;-53
2023/08/27 09:54:14;;;;;;;29.17;10.80;;;38.20;95.90;;;;;;4996192;28;20037;-52
2023/08/27 09:56:44;;;;;;;15.55;9.20;;;37.80;96.10;;;;;;4978979;28;20372;-56
2023/08/27 09:59:13;;;;;;;17.17;9.93;;;38.20;96.80;;;;;;4996054;28;20490;-55
2023/08/27 10:01:39;;;;;;;16.40;8.77;;;38.60;96.70;;;;;;4996157;28;20038;-55
2023/08/27 10:04:09;;;;;;;12.73;7.88;;;38.00;97.50;;;;;;4995963;28;20501;-55
2023/08/27 10:06:38;;;;;;;14.20;9.00;;;38.50;96.90;;;;;;4996463;28;20061;-55
2023/08/27 10:09:04;;;;;;;17.58;8.63;;;38.40;96.50;;;;;;4995956;28;20084;-53
2023/08/27 10:11:32;;;;;;;13.55;9.10;;;;;;;;;;4995885;28;20041;-56
2023/08/27 10:13:58;;;;;;;13.93;9.27;;;39.20;99.90;;;;;;4995912;28;20023;-54
2023/08/27 10:16:26;;;;;;;20.58;8.77;;;39.20;95.10;;;;;;4996268;28;20023;-55
2023/08/27 10:18:52;;;;;;;17.17;8.80;;;;;;;;;;4996446;28;20030;-52
2023/08/27 10:21:18;;;;;;;15.15;8.60;;;;;;;;;;4995617;28;20050;-54
2023/08/27 10:23:45;;;;;;;14.52;8.30;;;38.90;99.90;;;;;;4995981;28;20030;-53
2023/08/27 10:26:12;;;;;;;14.40;8.52;;;39.10;99.90;;;;;;4995562;28;20485;-56
2023/08/27 10:28:38;;;;;;;15.63;8.73;;;;;;;;;;4995845;28;20481;-55
2023/08/27 10:31:05;;;;;;;17.40;8.68;;;;;;;;;;4995671;28;20034;-52
2023/08/27 10:33:31;;;;;;;23.67;9.40;;;39.90;94.50;;;;;;4995366;28;20474;-52
2023/08/27 10:36:03;;;;;;;13.70;7.85;;;39.80;94.60;;;;;;4995389;28;20113;-53
2023/08/27 10:38:31;;;;;;;12.32;8.95;;;39.40;94.30;;;;;;4995545;28;20053;-53
2023/08/27 10:40:57;;;;;;;13.57;7.78;;;39.50;94.30;;;;;;4995948;28;20034;-54
2023/08/27 10:43:23;;;;;;;12.70;8.48;;;39.50;94.50;;;;;;4945310;28;20089;-56
2023/08/27 10:45:50;;;;;;;11.82;7.60;;;39.60;94.20;;;;;;4961341;28;20074;-54
2023/08/27 10:48:16;;;;;;;13.20;6.78;;;39.70;93.60;;;;;;4995643;28;20044;-54
2023/08/27 10:50:47;;;;;;;12.10;7.30;;;39.20;92.20;;;;;;4995589;28;20105;-54
2023/08/27 10:53:16;;;;;;;14.40;7.55;;;39.20;92.80;;;;;;4995053;28;20035;-55
2023/08/27 10:55:44;;;;;;;10.98;7.00;;;39.30;92.20;;;;;;4995588;28;20037;-52
2023/08/27 10:58:22;;;;;;;14.55;7.05;;;39.90;93.20;;;;;;4995012;28;20070;-54
2023/08/27 11:01:07;;;;;;;14.25;7.00;;;39.80;91.90;;;;;;4995501;28;20065;-54
2023/08/27 11:04:03;;;;;;;13.68;7.68;;;40.00;92.40;;;;;;4977018;28;20057;-52
2023/08/27 11:06:41;;;;;;;9.82;7.53;;;39.60;93.20;;;;;;4994982;28;20034;-55
2023/08/27 11:09:21;;;;;;;14.80;8.43;;;39.90;93.30;;;;;;4994664;28;20026;-54
2023/08/27 11:12:03;;;;;;;15.95;7.50;;;40.20;93.90;;;;;;4994841;28;20042;-55
2023/08/27 11:14:35;;;;;;;10.73;7.72;;;40.00;94.10;;;;;;4994564;28;20030;-55
2023/08/27 11:17:05;;;;;;;14.73;7.65;;;40.00;93.80;;;;;;4994636;28;20085;-54
2023/08/27 11:19:35;;;;;;;12.52;6.82;;;40.20;93.80;;;;;;4993843;28;20042;-54
2023/08/27 11:22:07;;;;;;;16.77;7.07;;;40.40;93.60;;;;;;4994812;28;20034;-56
2023/08/27 11:24:33;;;;;;;11.80;7.47;;;40.40;93.90;;;;;;4994635;28;20026;-55
2023/08/27 11:27:02;;;;;;;9.93;7.72;;;40.30;94.50;;;;;;4976453;28;20041;-57
2023/08/27 11:29:29;;;;;;;12.48;7.32;;;40.70;95.30;;;;;;4976522;28;20061;-56
2023/08/27 11:32:00;;;;;;;13.88;7.75;;;41.10;94.10;;;;;;4994977;28;20030;-56
2023/08/27 11:34:32;;;;;;;14.45;7.97;;;40.80;92.80;;;;;;4994204;28;20042;-58
2023/08/27 11:36:58;;;;;;;14.57;7.28;;;40.90;92.30;;;;;;4994538;28;20069;-56
2023/08/27 11:39:25;;;;;;;14.95;7.75;;;40.50;91.50;;;;;;4993732;28;20041;-52
2023/08/27 11:41:51;;;;;;;20.10;9.07;;;40.90;92.00;;;;;;4979280;28;20049;-56
2023/08/27 11:44:17;;;;;;;18.13;9.32;;;41.00;92.00;;;;;;4983697;28;20022;-55
2023/08/27 11:46:42;;;;;;;11.60;6.95;;;41.10;92.80;;;;;;4975168;28;20475;-53
2023/08/27 11:49:08;;;;;;;13.27;7.47;;;40.70;90.50;;;;;;4974773;28;20478;-53
2023/08/27 11:51:35;;;;;;;12.13;7.88;;;40.80;90.20;;;;;;4940968;28;20117;-54
2023/08/27 11:54:06;;;;;;;15.93;6.90;;;40.70;91.20;;;;;;4974654;28;20574;-51
2023/08/27 11:56:34;;;;;;;11.05;5.82;;;40.70;91.10;;;;;;4984521;28;20030;-54
2023/08/27 11:59:00;;;;;;;12.48;6.60;;;40.10;90.60;;;;;;4988860;28;20467;-53
2023/08/27 12:01:26;;;;;;;16.10;6.70;;;40.50;91.70;;;;;;4956859;28;20034;-52
2023/08/27 12:03:52;;;;;;;10.02;6.90;;;40.50;91.50;;;;;;4990002;28;20030;-53
2023/08/27 12:06:30;;;;;;;14.23;6.97;;;40.90;91.70;;;;;;4989314;28;20033;-54
2023/08/27 12:08:57;;;;;;;10.40;6.43;;;40.60;91.00;;;;;;4985397;28;20046;-54
2023/08/27 12:11:27;;;;;;;14.82;8.18;;;40.80;91.40;;;;;;4983912;28;20169;-54
2023/08/27 12:14:00;;;;;;;18.40;7.88;;;40.50;91.20;;;;;;4985090;28;20057;-57
2023/08/27 12:16:34;;;;;;;9.93;5.85;;;40.30;91.60;;;;;;4984353;28;20070;-54
2023/08/27 12:19:06;;;;;;;13.55;9.02;;;40.50;91.20;;;;;;4987303;28;20122;-55
2023/08/27 12:21:46;;;;;;;12.88;8.35;;;40.70;91.60;;;;;;4984922;28;20066;-54
2023/08/27 12:24:34;;;;;;;14.18;6.43;;;40.90;91.20;;;;;;4983236;28;20095;-55
2023/08/27 12:27:02;;;;;;;13.93;6.22;;;41.00;90.50;;;;;;4949119;28;20031;-53
2023/08/27 12:29:33;;;;;;;16.02;7.43;;;40.50;90.20;;;;;;4985443;28;20033;-54
2023/08/27 12:32:12;;;;;;;14.63;6.22;;;40.30;88.10;;;;;;4981020;28;20520;-55
2023/08/27 12:34:39;;;;;;;10.43;5.68;;;40.70;89.40;;;;;;4956367;28;20035;-55
2023/08/27 12:37:06;;;;;;;9.10;4.90;;;40.50;88.60;;;;;;4990669;28;20054;-54
2023/08/27 12:39:33;;;;;;;16.05;5.63;;;40.10;86.70;;;;;;4974363;28;20090;-56
2023/08/27 12:42:00;;;;;;;11.27;3.80;;;40.30;87.30;;;;;;4974219;28;20093;-55
2023/08/27 12:44:26;;;;;;;11.73;4.10;;;39.90;86.50;;;;;;4974045;28;20074;-55
2023/08/27 12:46:51;;;;;;;14.35;4.53;;;40.10;85.40;;;;;;4974586;28;20026;-54
2023/08/27 12:49:17;;;;;;;11.10;4.32;;;40.30;84.90;;;;;;4956424;28;20487;-55
2023/08/27 12:52:05;;;;;;;12.57;5.03;;;40.40;84.70;;;;;;4972114;28;20089;-54
2023/08/27 12:54:31;;;;;;;12.10;4.28;;;39.90;83.70;;;;;;4971934;28;20030;-54
2023/08/27 12:56:57;;;;;;;22.20;5.20;;;40.50;85.40;;;;;;4972090;28;20054;-52